Time;durP1;ratioP1;P1;durP2;ratioP2;P2;SDS_P1;SDS_P2;PMS_P1;PMS_P2;Temp;Humidity;BMP_temperature;BMP_pressure;BME280_temperature;BME280_humidity;BME280_pressure;Samples;Min_cycle;Max_cycle;Signal;HPM_P1;HPM_P2
2023/10/05 00:01:56;;;;;;;2.28;1.80;;;20.40;54.60;;;;;;5074282;28;20218;-77
2023/10/05 00:04:24;;;;;;;1.83;1.63;;;20.50;54.70;;;;;;5074153;28;20197;-77
2023/10/05 00:06:54;;;;;;;2.95;1.80;;;20.40;54.70;;;;;;5057344;28;20198;-77
2023/10/05 00:09:21;;;;;;;2.00;1.80;;;20.40;54.80;;;;;;5074003;28;20302;-77
2023/10/05 00:11:48;;;;;;;3.78;2.10;;;20.40;54.70;;;;;;5074249;28;20194;-77
2023/10/05 00:14:16;;;;;;;2.65;2.08;;;20.40;54.80;;;;;;5074278;28;20202;-77
2023/10/05 00:16:48;;;;;;;2.40;1.90;;;20.40;54.90;;;;;;5074863;28;20282;-77
2023/10/05 00:19:16;;;;;;;4.03;1.90;;;20.40;54.90;;;;;;5073662;28;20225;-77
2023/10/05 00:21:48;;;;;;;1.70;1.60;;;20.40;54.90;;;;;;5073798;28;20310;-77
2023/10/05 00:24:18;;;;;;;2.03;1.67;;;20.30;54.80;;;;;;5073881;28;20298;-77
2023/10/05 00:26:50;;;;;;;2.83;1.83;;;20.40;54.90;;;;;;5074485;28;20595;-77
2023/10/05 00:29:26;;;;;;;2.58;2.00;;;20.30;54.80;;;;;;5073598;28;20226;-77
2023/10/05 00:31:57;;;;;;;2.08;1.88;;;20.30;54.80;;;;;;5073568;28;20190;-77
2023/10/05 00:34:27;;;;;;;2.30;2.00;;;20.30;54.80;;;;;;5075116;28;20186;-77
2023/10/05 00:36:57;;;;;;;3.10;2.15;;;20.30;54.80;;;;;;5057328;28;20194;-77
2023/10/05 00:39:24;;;;;;;2.25;1.90;;;20.30;55.50;;;;;;5073965;28;20245;-77
2023/10/05 00:41:59;;;;;;;2.83;1.80;;;20.30;54.80;;;;;;5073295;28;20644;-77
2023/10/05 00:44:26;;;;;;;3.15;2.15;;;20.30;54.80;;;;;;5074164;28;20211;-77
2023/10/05 00:46:55;;;;;;;2.90;2.08;;;20.30;54.80;;;;;;5057110;28;20199;-77
2023/10/05 00:49:27;;;;;;;1.77;1.60;;;20.30;54.80;;;;;;5073317;28;20219;-77
2023/10/05 00:52:07;;;;;;;2.03;1.65;;;20.30;54.80;;;;;;5057426;28;20203;-77
2023/10/05 00:54:34;;;;;;;3.10;1.80;;;20.30;54.80;;;;;;5073263;28;20285;-77
2023/10/05 00:57:08;;;;;;;2.65;1.80;;;20.20;54.70;;;;;;5073127;28;20206;-77
2023/10/05 00:59:36;;;;;;;2.10;1.73;;;20.20;54.70;;;;;;5073117;28;20218;-77
2023/10/05 01:02:14;;;;;;;2.75;2.00;;;20.30;54.80;;;;;;5073186;28;20253;-77
2023/10/05 01:04:55;;;;;;;2.33;2.00;;;20.20;54.80;;;;;;5073069;28;20240;-77
2023/10/05 01:07:28;;;;;;;2.00;1.80;;;20.20;54.70;;;;;;5073084;28;20649;-77
2023/10/05 01:10:21;;;;;;;2.00;1.60;;;20.20;54.70;;;;;;5073415;28;20290;-77
2023/10/05 01:12:45;;;;;;;2.88;1.90;;;20.20;54.70;;;;;;5072719;28;20193;-77
2023/10/05 01:15:19;;;;;;;1.77;1.60;;;20.20;54.70;;;;;;5073123;28;20205;-77
2023/10/05 01:17:50;;;;;;;3.08;2.00;;;20.20;54.70;;;;;;5075768;28;20197;-77
2023/10/05 01:20:23;;;;;;;2.05;1.70;;;20.20;54.80;;;;;;5080520;28;20210;-77
2023/10/05 01:22:50;;;;;;;1.88;1.60;;;20.20;54.80;;;;;;5082906;28;20593;-77
2023/10/05 01:25:18;;;;;;;2.55;1.98;;;20.20;54.70;;;;;;5075300;28;20749;-77
2023/10/05 01:27:47;;;;;;;2.45;2.03;;;20.20;54.70;;;;;;5073036;28;20207;-77
2023/10/05 01:30:15;;;;;;;2.38;1.70;;;20.20;54.70;;;;;;5072811;28;20218;-77
2023/10/05 01:32:42;;;;;;;2.13;1.83;;;20.10;54.60;;;;;;5071964;28;20233;-77
2023/10/05 01:35:12;;;;;;;1.98;1.80;;;20.20;54.80;;;;;;5072544;28;20205;-77
2023/10/05 01:37:40;;;;;;;2.35;1.98;;;20.10;54.60;;;;;;5056952;28;20187;-77
2023/10/05 01:40:19;;;;;;;2.20;2.00;;;20.10;54.70;;;;;;5072728;28;20273;-77
2023/10/05 01:42:47;;;;;;;1.80;1.70;;;20.10;54.60;;;;;;5072701;28;20225;-77
2023/10/05 01:45:17;;;;;;;1.77;1.67;;;20.10;54.60;;;;;;5072882;28;20729;-77
2023/10/05 01:47:45;;;;;;;2.13;1.70;;;20.10;54.70;;;;;;5073156;28;20252;-78
2023/10/05 01:50:18;;;;;;;1.85;1.55;;;20.10;54.60;;;;;;5073368;28;20388;-78
2023/10/05 01:52:48;;;;;;;2.05;1.85;;;20.10;54.60;;;;;;5072529;28;20195;-78
2023/10/05 01:55:18;;;;;;;1.98;1.77;;;20.10;54.60;;;;;;5072607;28;20195;-78
2023/10/05 01:57:46;;;;;;;1.95;1.75;;;20.10;54.70;;;;;;5056398;28;20198;-78
2023/10/05 02:00:16;;;;;;;2.63;2.08;;;20.00;54.60;;;;;;5072337;28;20222;-78
2023/10/05 02:02:46;;;;;;;2.20;1.70;;;20.10;54.60;;;;;;5072772;28;20206;-78
2023/10/05 02:05:14;;;;;;;1.70;1.60;;;20.00;54.60;;;;;;5072583;28;20199;-78
2023/10/05 02:07:41;;;;;;;2.10;1.85;;;20.00;54.60;;;;;;5072896;28;20194;-78
2023/10/05 02:10:11;;;;;;;2.38;1.55;;;20.10;54.60;;;;;;5073009;28;20244;-78
2023/10/05 02:12:39;;;;;;;2.15;1.95;;;20.00;54.60;;;;;;5073169;28;20190;-78
2023/10/05 02:15:13;;;;;;;2.28;2.08;;;20.10;54.60;;;;;;5072383;28;20202;-78
2023/10/05 02:17:42;;;;;;;2.33;1.80;;;20.10;54.60;;;;;;5072285;28;20217;-78
2023/10/05 02:20:25;;;;;;;2.03;1.65;;;20.00;54.60;;;;;;5072144;28;20214;-78
2023/10/05 02:22:54;;;;;;;1.88;1.67;;;20.00;54.60;;;;;;5072241;28;20244;-78
2023/10/05 02:25:25;;;;;;;2.08;1.85;;;20.00;54.60;;;;;;5056261;28;20237;-78
2023/10/05 02:27:53;;;;;;;2.88;1.80;;;20.00;54.60;;;;;;5072759;28;20194;-78
2023/10/05 02:30:27;;;;;;;1.95;1.73;;;20.00;54.60;;;;;;5073683;28;20305;-78
2023/10/05 02:33:08;;;;;;;1.88;1.70;;;20.00;54.60;;;;;;5073188;28;20182;-78
2023/10/05 02:35:39;;;;;;;2.80;1.70;;;20.00;54.60;;;;;;5073774;28;20191;-78
2023/10/05 02:38:07;;;;;;;2.13;1.88;;;20.00;54.60;;;;;;5072552;28;20187;-78
2023/10/05 02:40:38;;;;;;;2.60;1.73;;;20.00;54.60;;;;;;5072376;28;20206;-78
2023/10/05 02:43:07;;;;;;;2.38;1.88;;;20.00;54.60;;;;;;5056568;28;20238;-77
2023/10/05 02:45:37;;;;;;;2.03;1.85;;;20.00;54.60;;;;;;5075729;28;20722;-77
2023/10/05 02:48:05;;;;;;;1.90;1.80;;;19.90;54.50;;;;;;5076345;28;20668;-77
2023/10/05 02:50:37;;;;;;;2.17;1.98;;;20.00;54.60;;;;;;5075812;28;20218;-77
2023/10/05 02:53:06;;;;;;;2.83;1.80;;;20.00;54.60;;;;;;5060884;28;20554;-77
2023/10/05 02:55:36;;;;;;;2.00;1.70;;;20.00;54.60;;;;;;5075725;28;20207;-77
2023/10/05 02:58:04;;;;;;;1.98;1.80;;;19.90;54.50;;;;;;5076700;28;20216;-77
2023/10/05 03:00:33;;;;;;;1.70;1.60;;;20.00;54.60;;;;;;5075670;28;20222;-77
2023/10/05 03:03:03;;;;;;;1.90;1.70;;;20.00;54.60;;;;;;5075510;28;20242;-77
2023/10/05 03:05:32;;;;;;;2.00;1.67;;;19.90;54.50;;;;;;5076458;28;20209;-77
2023/10/05 03:07:59;;;;;;;1.60;1.50;;;19.90;54.50;;;;;;5075350;28;20191;-77
2023/10/05 03:10:28;;;;;;;2.35;1.60;;;19.90;54.50;;;;;;5075800;28;20296;-77
2023/10/05 03:12:55;;;;;;;2.08;1.80;;;19.90;54.50;;;;;;5075715;28;20241;-77
2023/10/05 03:15:27;;;;;;;2.22;2.03;;;19.90;54.40;;;;;;5075570;28;20241;-77
2023/10/05 03:17:57;;;;;;;2.10;1.70;;;19.90;54.40;;;;;;5075732;28;20191;-77
2023/10/05 03:20:29;;;;;;;1.70;1.60;;;19.90;54.40;;;;;;5076222;28;20276;-77
2023/10/05 03:22:57;;;;;;;2.15;1.80;;;19.90;54.30;;;;;;5075305;28;20218;-77
2023/10/05 03:25:26;;;;;;;2.13;1.92;;;20.00;54.30;;;;;;5075100;28;20214;-77
2023/10/05 03:27:56;;;;;;;1.95;1.70;;;20.00;54.20;;;;;;5075145;28;20201;-77
2023/10/05 03:30:30;;;;;;;1.70;1.60;;;20.10;54.20;;;;;;5076545;28;20210;-78
2023/10/05 03:33:00;;;;;;;2.05;1.90;;;20.10;54.10;;;;;;5060011;28;20650;-78
2023/10/05 03:35:32;;;;;;;2.17;1.75;;;20.10;54.00;;;;;;5075219;28;20183;-78
2023/10/05 03:38:00;;;;;;;2.35;1.80;;;20.10;53.90;;;;;;5074969;28;20285;-78
2023/10/05 03:40:35;;;;;;;1.83;1.60;;;20.10;53.80;;;;;;5074774;28;20222;-78
2023/10/05 03:43:04;;;;;;;2.75;1.75;;;20.20;53.80;;;;;;5074663;28;20246;-78
2023/10/05 03:45:35;;;;;;;1.75;1.65;;;20.20;53.80;;;;;;5074761;28;20198;-78
2023/10/05 03:48:03;;;;;;;2.20;1.85;;;20.20;53.70;;;;;;5074743;28;20202;-78
2023/10/05 03:50:32;;;;;;;1.70;1.60;;;20.20;53.60;;;;;;5074604;28;20303;-77
2023/10/05 03:52:59;;;;;;;3.63;1.85;;;20.20;53.70;;;;;;5075533;28;20225;-78
2023/10/05 03:55:27;;;;;;;2.38;1.75;;;20.20;53.60;;;;;;5073406;28;20654;-78
2023/10/05 03:57:57;;;;;;;2.20;1.83;;;20.30;53.60;;;;;;5074608;28;20216;-78
2023/10/05 04:00:31;;;;;;;2.08;1.70;;;20.20;53.50;;;;;;5074600;28;20237;-78
2023/10/05 04:02:59;;;;;;;1.75;1.65;;;20.30;53.50;;;;;;5074311;28;20207;-78
2023/10/05 04:05:26;;;;;;;1.92;1.73;;;20.20;53.50;;;;;;5074826;28;20200;-78
2023/10/05 04:08:10;;;;;;;2.38;1.63;;;20.20;53.50;;;;;;5074640;28;20195;-78
2023/10/05 04:10:46;;;;;;;1.70;1.60;;;20.30;53.60;;;;;;5074316;28;20219;-78
2023/10/05 04:13:14;;;;;;;2.13;1.83;;;20.20;53.50;;;;;;5058905;28;20190;-78
2023/10/05 04:15:41;;;;;;;1.98;1.70;;;20.30;53.60;;;;;;5074142;28;20202;-77
2023/10/05 04:18:11;;;;;;;1.80;1.60;;;20.20;53.50;;;;;;5074138;28;20279;-77
2023/10/05 04:20:43;;;;;;;3.13;1.90;;;20.20;53.50;;;;;;5074084;28;20229;-77
2023/10/05 04:23:15;;;;;;;2.72;2.00;;;20.30;53.60;;;;;;5073900;28;20242;-77
2023/10/05 04:25:44;;;;;;;2.17;1.80;;;20.20;53.50;;;;;;5075028;28;20211;-77
2023/10/05 04:28:12;;;;;;;1.63;1.50;;;20.20;53.50;;;;;;5073941;28;20198;-77
2023/10/05 04:30:39;;;;;;;2.00;1.80;;;20.20;53.50;;;;;;5073604;28;20268;-77
2023/10/05 04:33:07;;;;;;;2.60;1.70;;;20.20;53.50;;;;;;5074045;28;20191;-77
2023/10/05 04:35:42;;;;;;;1.98;1.77;;;20.20;53.50;;;;;;5074344;28;20195;-77
2023/10/05 04:38:10;;;;;;;1.90;1.73;;;20.20;53.50;;;;;;5073630;28;20186;-77
2023/10/05 04:40:39;;;;;;;2.03;1.73;;;20.20;53.60;;;;;;5073395;28;20309;-77
2023/10/05 04:43:11;;;;;;;1.73;1.63;;;20.20;53.50;;;;;;5073344;28;20680;-77
2023/10/05 04:45:42;;;;;;;1.70;1.60;;;20.20;53.50;;;;;;5073649;28;20210;-77
2023/10/05 04:48:12;;;;;;;2.80;1.80;;;20.20;53.50;;;;;;5073495;28;20195;-77
2023/10/05 04:50:39;;;;;;;2.47;1.90;;;20.20;53.50;;;;;;5057514;28;20227;-77
2023/10/05 04:53:09;;;;;;;2.30;1.92;;;20.20;53.50;;;;;;5073237;28;20567;-77
2023/10/05 04:55:42;;;;;;;1.52;1.42;;;20.20;53.50;;;;;;5074346;28;20186;-78
2023/10/05 04:58:31;;;;;;;1.60;1.40;;;20.20;53.50;;;;;;5073590;28;20199;-78
2023/10/05 05:01:18;;;;;;;1.85;1.70;;;20.20;53.50;;;;;;5073867;28;20309;-78
2023/10/05 05:03:56;;;;;;;2.15;1.80;;;20.10;53.50;;;;;;5073281;28;20215;-78
2023/10/05 05:06:25;;;;;;;1.95;1.70;;;20.10;53.60;;;;;;5073844;28;20210;-78
2023/10/05 05:08:53;;;;;;;1.48;1.38;;;20.10;53.60;;;;;;5074418;28;20175;-78
2023/10/05 05:11:22;;;;;;;2.10;1.85;;;20.10;53.70;;;;;;5073004;28;20618;-78
2023/10/05 05:13:49;;;;;;;1.50;1.40;;;20.10;54.20;;;;;;5072977;28;20191;-78
2023/10/05 05:16:16;;;;;;;1.70;1.60;;;20.10;53.70;;;;;;5072998;28;20199;-78
2023/10/05 05:18:43;;;;;;;1.92;1.73;;;20.10;53.70;;;;;;5072891;28;20214;-77
2023/10/05 05:21:11;;;;;;;1.92;1.75;;;20.10;53.70;;;;;;5072870;28;20272;-77
2023/10/05 05:23:39;;;;;;;2.83;1.85;;;20.00;53.70;;;;;;5072982;28;20222;-77
2023/10/05 05:26:09;;;;;;;1.73;1.50;;;20.00;53.70;;;;;;5072762;28;20230;-77
2023/10/05 05:28:38;;;;;;;1.88;1.73;;;20.00;53.60;;;;;;5072875;28;20226;-77
2023/10/05 05:31:14;;;;;;;1.60;1.50;;;20.10;53.70;;;;;;5073963;28;20218;-77
2023/10/05 05:33:43;;;;;;;1.75;1.60;;;20.00;53.70;;;;;;5072910;28;20201;-77
2023/10/05 05:36:12;;;;;;;2.17;1.92;;;20.00;53.70;;;;;;5072826;28;20198;-77
2023/10/05 05:38:39;;;;;;;1.88;1.70;;;20.10;53.70;;;;;;5072734;28;20199;-77
2023/10/05 05:41:15;;;;;;;2.10;1.67;;;20.00;53.70;;;;;;5072748;28;20297;-77
2023/10/05 05:43:44;;;;;;;1.52;1.42;;;20.10;53.70;;;;;;5073316;28;20214;-77
2023/10/05 05:46:13;;;;;;;1.67;1.58;;;20.00;53.70;;;;;;5073638;28;20579;-77
2023/10/05 05:48:44;;;;;;;1.63;1.52;;;20.00;53.70;;;;;;5072573;28;20293;-77
2023/10/05 05:51:15;;;;;;;1.80;1.63;;;20.00;53.70;;;;;;5055925;28;20252;-77
2023/10/05 05:53:43;;;;;;;1.80;1.70;;;20.10;53.70;;;;;;5072696;28;20195;-77
2023/10/05 05:56:16;;;;;;;1.60;1.50;;;20.00;53.70;;;;;;5072867;28;20235;-77
2023/10/05 05:58:46;;;;;;;2.22;1.70;;;20.00;53.60;;;;;;5072472;28;20248;-77
2023/10/05 06:01:15;;;;;;;2.00;1.60;;;20.00;53.60;;;;;;5072286;28;20223;-77
2023/10/05 06:03:44;;;;;;;1.63;1.52;;;20.00;53.50;;;;;;5072989;28;20645;-77
2023/10/05 06:06:11;;;;;;;1.90;1.70;;;20.00;53.40;;;;;;5072647;28;20205;-77
2023/10/05 06:08:39;;;;;;;2.28;1.95;;;20.10;53.50;;;;;;5072397;28;20256;-77
2023/10/05 06:11:08;;;;;;;1.98;1.77;;;20.10;53.40;;;;;;5074926;28;20206;-77
2023/10/05 06:13:37;;;;;;;2.00;1.70;;;20.00;53.10;;;;;;5056301;28;20258;-77
2023/10/05 06:16:09;;;;;;;1.88;1.73;;;20.10;53.20;;;;;;5074979;28;20203;-77
2023/10/05 06:18:37;;;;;;;1.67;1.58;;;20.10;53.30;;;;;;5072603;28;20290;-77
2023/10/05 06:21:04;;;;;;;1.90;1.70;;;20.10;53.30;;;;;;5077469;28;20264;-77
2023/10/05 06:23:33;;;;;;;2.42;1.60;;;20.20;53.20;;;;;;5077047;28;20289;-77
2023/10/05 06:26:00;;;;;;;1.90;1.60;;;20.20;53.20;;;;;;5077429;28;20232;-77
2023/10/05 06:28:27;;;;;;;2.00;1.80;;;20.20;53.00;;;;;;5059714;28;20222;-77
2023/10/05 06:30:54;;;;;;;1.75;1.65;;;20.20;52.70;;;;;;5076608;28;20222;-77
2023/10/05 06:33:23;;;;;;;1.73;1.63;;;20.20;53.00;;;;;;5075863;28;20209;-77
2023/10/05 06:35:51;;;;;;;1.65;1.50;;;20.30;53.00;;;;;;5077189;28;20197;-77
2023/10/05 06:38:18;;;;;;;2.08;1.60;;;20.30;52.80;;;;;;5076335;28;20202;-77
2023/10/05 06:40:46;;;;;;;1.60;1.50;;;20.30;52.80;;;;;;5075553;28;20223;-77
2023/10/05 06:43:15;;;;;;;1.92;1.83;;;20.20;52.70;;;;;;5076014;28;20199;-77
2023/10/05 06:45:44;;;;;;;2.00;1.80;;;20.30;52.80;;;;;;5075518;28;20241;-77
2023/10/05 06:48:11;;;;;;;2.20;1.67;;;20.30;52.90;;;;;;5075502;28;20298;-77
2023/10/05 06:50:40;;;;;;;1.95;1.70;;;20.30;52.80;;;;;;5058842;28;20222;-77
2023/10/05 06:53:08;;;;;;;1.67;1.48;;;20.30;52.80;;;;;;5075640;28;20730;-77
2023/10/05 06:55:34;;;;;;;1.65;1.50;;;20.30;52.90;;;;;;5075466;28;20675;-77
2023/10/05 06:58:03;;;;;;;1.70;1.60;;;20.30;52.90;;;;;;5075446;28;20661;-77
2023/10/05 07:00:31;;;;;;;1.90;1.70;;;20.30;52.80;;;;;;5075427;28;20294;-77
2023/10/05 07:03:02;;;;;;;1.90;1.70;;;20.30;52.70;;;;;;5058632;28;20190;-77
2023/10/05 07:05:29;;;;;;;2.20;1.95;;;20.40;52.30;;;;;;5059922;28;20218;-77
2023/10/05 07:07:57;;;;;;;1.60;1.50;;;20.40;52.70;;;;;;5075419;28;20256;-77
2023/10/05 07:10:24;;;;;;;2.28;1.73;;;20.40;52.80;;;;;;5058523;28;20210;-77
2023/10/05 07:12:51;;;;;;;2.22;1.73;;;20.40;52.70;;;;;;5076373;28;20202;-77
2023/10/05 07:15:19;;;;;;;2.65;1.80;;;20.40;52.60;;;;;;5058691;28;20191;-77
2023/10/05 07:17:47;;;;;;;1.90;1.70;;;20.40;52.40;;;;;;5075239;28;20191;-77
2023/10/05 07:20:16;;;;;;;1.70;1.60;;;20.40;52.60;;;;;;5075186;28;20218;-77
2023/10/05 07:22:44;;;;;;;2.15;1.95;;;20.40;52.40;;;;;;5059133;28;20332;-77
2023/10/05 07:25:14;;;;;;;2.70;1.65;;;20.50;52.10;;;;;;5075836;28;20214;-77
2023/10/05 07:27:41;;;;;;;2.80;1.73;;;20.50;52.10;;;;;;5075308;28;20268;-78
2023/10/05 07:30:09;;;;;;;2.83;1.80;;;20.50;52.10;;;;;;5074929;28;20221;-77
2023/10/05 07:32:37;;;;;;;2.25;1.70;;;20.50;51.80;;;;;;5075170;28;20198;-80
2023/10/05 07:35:05;;;;;;;2.38;1.90;;;20.50;51.70;;;;;;5075221;28;20202;-78
2023/10/05 07:37:32;;;;;;;2.15;1.95;;;20.60;51.50;;;;;;5075036;28;20283;-76
2023/10/05 07:39:59;;;;;;;2.08;1.70;;;20.60;51.50;;;;;;5074895;28;20214;-77
2023/10/05 07:42:29;;;;;;;1.80;1.70;;;20.70;51.60;;;;;;5074753;28;20199;-78
2023/10/05 07:44:56;;;;;;;2.33;2.00;;;20.70;51.50;;;;;;5076547;28;20214;-77
2023/10/05 07:47:24;;;;;;;3.88;2.10;;;20.80;51.60;;;;;;5075035;28;20588;-77
2023/10/05 07:49:53;;;;;;;5.00;2.25;;;20.80;51.60;;;;;;5058605;28;20246;-77
2023/10/05 07:52:20;;;;;;;1.92;1.80;;;20.90;51.20;;;;;;5075615;28;20293;-78
2023/10/05 07:54:47;;;;;;;2.63;1.85;;;20.90;50.90;;;;;;5058453;28;20202;-80
2023/10/05 07:57:15;;;;;;;3.10;2.00;;;20.90;50.80;;;;;;5074962;28;20195;-79
2023/10/05 07:59:43;;;;;;;2.05;1.77;;;21.00;50.90;;;;;;5074750;28;20210;-79
2023/10/05 08:02:11;;;;;;;2.33;2.13;;;21.10;50.80;;;;;;5074415;28;20252;-79
2023/10/05 08:04:38;;;;;;;2.85;2.20;;;21.20;50.50;;;;;;5074523;28;20230;-79
2023/10/05 08:07:05;;;;;;;2.72;2.00;;;21.30;50.10;;;;;;5074800;28;20252;-79
2023/10/05 08:09:34;;;;;;;2.20;1.92;;;21.40;49.90;;;;;;5074399;28;20250;-79
2023/10/05 08:12:02;;;;;;;2.03;1.83;;;21.40;49.70;;;;;;5074433;28;20199;-78
2023/10/05 08:14:30;;;;;;;2.08;1.77;;;21.50;49.90;;;;;;5074607;28;20199;-79
2023/10/05 08:16:59;;;;;;;2.60;2.08;;;21.50;49.90;;;;;;5075521;28;20646;-78
2023/10/05 08:19:28;;;;;;;2.65;2.00;;;21.50;49.80;;;;;;5074497;28;20249;-79
2023/10/05 08:21:54;;;;;;;3.13;2.10;;;21.50;49.60;;;;;;5074979;28;20645;-79
2023/10/05 08:24:23;;;;;;;2.60;2.40;;;21.50;49.50;;;;;;5074198;28;20210;-79
2023/10/05 08:26:50;;;;;;;2.88;2.00;;;21.60;49.60;;;;;;5073948;28;20194;-79
2023/10/05 08:29:17;;;;;;;2.28;2.03;;;21.60;49.50;;;;;;5073815;28;20297;-79
2023/10/05 08:31:45;;;;;;;4.38;1.80;;;21.70;49.60;;;;;;5073767;28;20195;-78
2023/10/05 08:34:20;;;;;;;4.43;2.30;;;21.70;49.10;;;;;;5074136;28;20623;-77
2023/10/05 08:36:49;;;;;;;2.25;2.05;;;21.80;49.50;;;;;;5074391;28;20281;-77
2023/10/05 08:39:16;;;;;;;2.40;2.15;;;21.80;49.50;;;;;;5073667;28;20245;-76
2023/10/05 08:41:43;;;;;;;2.75;2.13;;;21.80;49.30;;;;;;5074795;28;20195;-76
2023/10/05 08:44:11;;;;;;;3.03;2.30;;;21.90;49.60;;;;;;5073751;28;20699;-76
2023/10/05 08:46:42;;;;;;;3.35;2.20;;;22.00;48.80;;;;;;5073893;28;20253;-76
2023/10/05 08:49:10;;;;;;;2.63;2.25;;;22.10;48.60;;;;;;5073673;28;20223;-76
2023/10/05 08:51:40;;;;;;;2.85;2.38;;;22.10;48.80;;;;;;5073549;28;20230;-76
2023/10/05 08:54:09;;;;;;;3.50;2.40;;;22.10;48.10;;;;;;5074568;28;20273;-76
2023/10/05 08:56:40;;;;;;;2.45;2.22;;;22.20;48.00;;;;;;5074334;28;20205;-76
2023/10/05 08:59:13;;;;;;;4.03;2.20;;;22.30;47.90;;;;;;5074025;28;20195;-76
2023/10/05 09:01:42;;;;;;;2.13;1.92;;;22.40;47.80;;;;;;5074066;28;20195;-77
2023/10/05 09:04:23;;;;;;;3.00;2.03;;;22.50;47.80;;;;;;5074013;28;20206;-77
2023/10/05 09:06:55;;;;;;;3.38;1.98;;;22.50;47.70;;;;;;5060946;28;20186;-78
2023/10/05 09:09:36;;;;;;;4.05;2.40;;;22.70;47.70;;;;;;5074847;28;20612;-77
2023/10/05 09:12:26;;;;;;;2.45;1.88;;;22.70;47.70;;;;;;5075133;28;20236;-76
2023/10/05 09:15:05;;;;;;;4.22;2.25;;;22.80;47.60;;;;;;5073754;28;20206;-76
2023/10/05 09:17:34;;;;;;;2.78;1.95;;;22.90;47.30;;;;;;5073311;28;20202;-76
2023/10/05 09:20:22;;;;;;;2.90;2.10;;;23.00;47.20;;;;;;5075293;28;20681;-76
2023/10/05 09:22:55;;;;;;;3.53;2.50;;;23.10;47.30;;;;;;5073693;28;20306;-76
2023/10/05 09:25:27;;;;;;;3.03;2.30;;;23.10;47.20;;;;;;5073398;28;20746;-77
2023/10/05 09:27:56;;;;;;;3.40;2.28;;;23.20;47.30;;;;;;5057377;28;20203;-77
2023/10/05 09:30:29;;;;;;;4.38;2.40;;;23.10;47.20;;;;;;5073231;28;20716;-76
2023/10/05 09:33:06;;;;;;;3.60;2.13;;;23.10;47.30;;;;;;5073932;28;20198;-77
2023/10/05 09:35:33;;;;;;;3.65;2.20;;;23.10;47.40;;;;;;5074160;28;20197;-77
2023/10/05 09:38:01;;;;;;;2.85;2.17;;;23.10;47.50;;;;;;5073304;28;20203;-77
2023/10/05 09:40:28;;;;;;;7.07;2.50;;;23.10;47.50;;;;;;5073313;28;20221;-76
2023/10/05 09:42:57;;;;;;;4.00;2.38;;;23.00;47.50;;;;;;5073244;28;20195;-77
2023/10/05 09:45:24;;;;;;;2.95;2.33;;;23.10;47.70;;;;;;5073057;28;20206;-77
2023/10/05 09:47:53;;;;;;;5.57;2.28;;;23.00;47.90;;;;;;5075781;28;20194;-76
2023/10/05 09:50:21;;;;;;;2.92;1.98;;;23.10;47.90;;;;;;5076411;28;20285;-76
2023/10/05 09:52:48;;;;;;;2.63;2.13;;;23.10;47.90;;;;;;5071362;28;20672;-76
2023/10/05 09:55:18;;;;;;;3.00;2.05;;;23.10;47.50;;;;;;5071502;28;20641;-77
2023/10/05 09:57:51;;;;;;;4.38;2.38;;;23.20;47.60;;;;;;5056459;28;20203;-77
2023/10/05 10:00:30;;;;;;;2.70;2.25;;;23.20;47.60;;;;;;5073410;28;20275;-77
2023/10/05 10:02:58;;;;;;;3.03;2.33;;;23.30;47.70;;;;;;5075600;28;20236;-76
2023/10/05 10:05:30;;;;;;;4.93;2.30;;;23.30;47.70;;;;;;5073051;28;20219;-76
2023/10/05 10:07:57;;;;;;;3.15;1.92;;;23.30;47.50;;;;;;5073842;28;20191;-76
2023/10/05 10:10:28;;;;;;;3.55;2.13;;;23.40;47.30;;;;;;5073207;28;20218;-76
2023/10/05 10:12:56;;;;;;;3.70;2.40;;;23.40;47.50;;;;;;5073100;28;20282;-77
2023/10/05 10:15:28;;;;;;;12.27;2.47;;;23.40;47.70;;;;;;5072453;28;20645;-77
2023/10/05 10:18:13;;;;;;;3.88;2.42;;;23.40;48.00;;;;;;5072603;28;20203;-76
2023/10/05 10:20:45;;;;;;;5.88;3.10;;;23.40;47.80;;;;;;5073188;28;20222;-77
2023/10/05 10:23:15;;;;;;;8.73;3.80;;;23.30;47.40;;;;;;5072267;28;20221;-77
2023/10/05 10:25:46;;;;;;;6.38;3.10;;;23.30;45.90;;;;;;5073580;28;20225;-77
2023/10/05 10:28:17;;;;;;;7.68;4.00;;;23.40;46.50;;;;;;5072452;28;20198;-77
2023/10/05 10:30:48;;;;;;;7.80;4.80;;;23.30;45.90;;;;;;5071920;28;20317;-77
2023/10/05 10:33:30;;;;;;;8.98;4.50;;;23.20;45.70;;;;;;5072163;28;20657;-77
2023/10/05 10:35:57;;;;;;;14.10;5.18;;;23.20;45.30;;;;;;5072061;28;20554;-76
2023/10/05 10:38:24;;;;;;;9.05;4.85;;;23.20;45.20;;;;;;5072225;28;20230;-77
2023/10/05 10:41:09;;;;;;;11.13;4.60;;;23.00;44.00;;;;;;5072146;28;20215;-77
2023/10/05 10:43:37;;;;;;;9.15;4.57;;;22.90;44.50;;;;;;5072556;28;20198;-77
2023/10/05 10:46:13;;;;;;;6.75;4.18;;;22.80;45.20;;;;;;5072304;28;20222;-77
2023/10/05 10:48:53;;;;;;;6.60;3.90;;;22.50;45.50;;;;;;5073184;28;20175;-76
2023/10/05 10:51:21;;;;;;;9.88;4.68;;;22.20;46.10;;;;;;5071810;28;20260;-76
2023/10/05 10:53:50;;;;;;;10.20;4.20;;;22.10;46.30;;;;;;5071807;28;20253;-75
2023/10/05 10:56:21;;;;;;;8.02;4.32;;;21.90;45.70;;;;;;5072005;28;20198;-77
2023/10/05 10:58:56;;;;;;;9.57;4.53;;;22.00;46.20;;;;;;5071993;28;20202;-77
2023/10/05 11:01:29;;;;;;;8.55;4.32;;;22.10;46.20;;;;;;5071892;28;20198;-77
2023/10/05 11:03:55;;;;;;;8.65;4.60;;;22.20;46.30;;;;;;5071838;28;20260;-77
2023/10/05 11:06:23;;;;;;;7.90;4.32;;;22.30;46.40;;;;;;5074608;28;20223;-78
2023/10/05 11:08:53;;;;;;;9.25;3.95;;;22.30;46.40;;;;;;5075283;28;20731;-78
2023/10/05 11:11:23;;;;;;;10.63;4.50;;;22.40;46.40;;;;;;5075246;28;20202;-78
2023/10/05 11:13:54;;;;;;;5.80;4.00;;;22.40;46.50;;;;;;5075572;28;20566;-78
2023/10/05 11:16:26;;;;;;;8.50;4.13;;;22.50;46.20;;;;;;5076431;28;20282;-78
2023/10/05 11:18:57;;;;;;;9.13;4.10;;;22.60;46.20;;;;;;5075123;28;20187;-78
2023/10/05 11:21:26;;;;;;;9.07;4.40;;;22.60;46.30;;;;;;5075329;28;20197;-76
2023/10/05 11:23:57;;;;;;;7.32;4.22;;;22.70;46.40;;;;;;5075013;28;20194;-77
2023/10/05 11:26:33;;;;;;;6.75;3.80;;;22.80;46.40;;;;;;5075119;28;20266;-76
2023/10/05 11:29:00;;;;;;;7.03;3.67;;;22.80;46.40;;;;;;5075161;28;20195;-76
2023/10/05 11:31:27;;;;;;;6.65;3.83;;;22.90;46.40;;;;;;5075380;28;20198;-76
2023/10/05 11:33:53;;;;;;;5.60;3.60;;;22.90;46.30;;;;;;5075362;28;20195;-78
2023/10/05 11:36:22;;;;;;;6.03;3.45;;;22.90;46.40;;;;;;5075991;28;20194;-76
2023/10/05 11:38:49;;;;;;;6.95;3.58;;;23.00;46.30;;;;;;5075577;28;20203;-76
2023/10/05 11:41:23;;;;;;;5.45;3.30;;;23.00;46.30;;;;;;5074847;28;20203;-76
2023/10/05 11:43:53;;;;;;;5.90;3.85;;;23.00;46.30;;;;;;5075022;28;20201;-77
2023/10/05 11:46:26;;;;;;;6.90;3.78;;;23.00;46.30;;;;;;5074771;28;20229;-76
2023/10/05 11:48:55;;;;;;;6.40;3.72;;;23.00;46.40;;;;;;5075844;28;20191;-76
2023/10/05 11:51:26;;;;;;;5.60;3.60;;;22.90;46.40;;;;;;5074552;28;20234;-76
2023/10/05 11:53:55;;;;;;;5.50;3.38;;;23.00;46.60;;;;;;5074814;28;20219;-77
2023/10/05 11:56:30;;;;;;;6.13;3.33;;;23.00;46.40;;;;;;5074806;28;20255;-76
2023/10/05 11:58:59;;;;;;;6.43;3.70;;;23.00;46.30;;;;;;5074823;28;20210;-76
2023/10/05 12:01:27;;;;;;;5.30;3.50;;;23.00;46.40;;;;;;5075704;28;20240;-76
2023/10/05 12:03:55;;;;;;;5.05;3.28;;;23.00;46.40;;;;;;5058085;28;20191;-76
2023/10/05 12:06:25;;;;;;;5.75;3.65;;;23.00;46.40;;;;;;5074341;28;20569;-76
2023/10/05 12:08:53;;;;;;;6.85;3.88;;;23.00;46.40;;;;;;5074432;28;20252;-77
2023/10/05 12:11:23;;;;;;;5.10;3.53;;;23.00;46.40;;;;;;5057815;28;20205;-76
2023/10/05 12:13:56;;;;;;;7.30;3.80;;;23.00;46.50;;;;;;5074702;28;20189;-76
2023/10/05 12:16:25;;;;;;;6.65;3.42;;;23.10;46.60;;;;;;5073914;28;20203;-76
2023/10/05 12:18:54;;;;;;;6.05;3.50;;;23.10;46.50;;;;;;5075226;28;20194;-76
2023/10/05 12:21:21;;;;;;;5.38;3.42;;;23.10;46.60;;;;;;5073995;28;20194;-74
2023/10/05 12:23:48;;;;;;;5.07;3.13;;;23.10;46.50;;;;;;5073981;28;20198;-74
2023/10/05 12:26:16;;;;;;;6.90;4.00;;;23.10;46.50;;;;;;5074435;28;20227;-74
2023/10/05 12:28:43;;;;;;;5.82;3.35;;;23.10;46.50;;;;;;5073910;28;20205;-74
2023/10/05 12:31:12;;;;;;;6.20;3.60;;;23.10;46.60;;;;;;5074188;28;20226;-76
2023/10/05 12:33:40;;;;;;;4.88;3.40;;;23.10;46.70;;;;;;5074078;28;20626;-75
2023/10/05 12:36:12;;;;;;;5.85;3.60;;;23.10;46.80;;;;;;5073991;28;20197;-74
2023/10/05 12:38:39;;;;;;;6.35;3.80;;;23.00;46.70;;;;;;5073887;28;20200;-74
2023/10/05 12:41:13;;;;;;;7.20;3.78;;;23.00;47.60;;;;;;5073968;28;20318;-74
2023/10/05 12:43:42;;;;;;;5.80;3.58;;;23.00;48.20;;;;;;5073566;28;20194;-74
2023/10/05 12:46:10;;;;;;;7.25;3.85;;;23.00;48.70;;;;;;5073617;28;20221;-74
2023/10/05 12:48:42;;;;;;;6.85;3.38;;;23.00;48.70;;;;;;5073546;28;20198;-74
2023/10/05 12:51:09;;;;;;;7.85;4.03;;;23.00;49.00;;;;;;5073439;28;20618;-75
2023/10/05 12:53:37;;;;;;;6.13;3.47;;;23.00;48.30;;;;;;5073253;28;20202;-75
2023/10/05 12:56:05;;;;;;;4.22;3.00;;;23.00;48.80;;;;;;5073174;28;20282;-74
2023/10/05 12:58:33;;;;;;;5.95;3.40;;;23.00;48.90;;;;;;5073318;28;20206;-75
2023/10/05 13:01:07;;;;;;;5.47;3.63;;;23.00;48.80;;;;;;5073177;28;20214;-75